sensor_id;sensor_type;location;lat;lon;timestamp;P1;durP1;ratioP1;P2;durP2;ratioP2
69226;SDS011;56334;52.398;7.552;2023-05-10T00:02:00;0.03;;;0.00;;
69226;SDS011;56334;52.398;7.552;2023-05-10T00:04:26;1.95;;;0.05;;
69226;SDS011;56334;52.398;7.552;2023-05-10T00:06:52;0.13;;;0.03;;
69226;SDS011;56334;52.398;7.552;2023-05-10T00:09:18;0.82;;;0.20;;
69226;SDS011;56334;52.398;7.552;2023-05-10T00:11:44;0.32;;;0.08;;
69226;SDS011;56334;52.398;7.552;2023-05-10T00:14:11;0.95;;;0.30;;
69226;SDS011;56334;52.398;7.552;2023-05-10T00:16:37;0.08;;;0.03;;
69226;SDS011;56334;52.398;7.552;2023-05-10T00:19:03;0.47;;;0.47;;
69226;SDS011;56334;52.398;7.552;2023-05-10T00:21:29;1.27;;;0.45;;
69226;SDS011;56334;52.398;7.552;2023-05-10T00:23:55;1.05;;;0.25;;
69226;SDS011;56334;52.398;7.552;2023-05-10T00:26:21;0.00;;;0.00;;
69226;SDS011;56334;52.398;7.552;2023-05-10T00:28:47;0.65;;;0.20;;
69226;SDS011;56334;52.398;7.552;2023-05-10T00:31:13;0.75;;;0.22;;
69226;SDS011;56334;52.398;7.552;2023-05-10T00:33:39;0.93;;;0.40;;
69226;SDS011;56334;52.398;7.552;2023-05-10T00:36:05;0.65;;;0.40;;
69226;SDS011;56334;52.398;7.552;2023-05-10T00:38:32;0.00;;;0.00;;
69226;SDS011;56334;52.398;7.552;2023-05-10T00:40:58;0.75;;;0.40;;
69226;SDS011;56334;52.398;7.552;2023-05-10T00:43:24;0.47;;;0.20;;
69226;SDS011;56334;52.398;7.552;2023-05-10T00:45:50;0.00;;;0.00;;
69226;SDS011;56334;52.398;7.552;2023-05-10T00:48:16;0.10;;;0.10;;
69226;SDS011;56334;52.398;7.552;2023-05-10T00:50:42;0.70;;;0.10;;
69226;SDS011;56334;52.398;7.552;2023-05-10T00:53:09;1.17;;;0.40;;
69226;SDS011;56334;52.398;7.552;2023-05-10T00:55:36;2.90;;;0.40;;
69226;SDS011;56334;52.398;7.552;2023-05-10T00:58:02;1.23;;;0.50;;
69226;SDS011;56334;52.398;7.552;2023-05-10T01:00:28;0.55;;;0.30;;
69226;SDS011;56334;52.398;7.552;2023-05-10T01:02:54;1.88;;;0.60;;
69226;SDS011;56334;52.398;7.552;2023-05-10T01:05:20;0.68;;;0.22;;
69226;SDS011;56334;52.398;7.552;2023-05-10T01:07:47;0.10;;;0.10;;
69226;SDS011;56334;52.398;7.552;2023-05-10T01:10:13;0.40;;;0.20;;
69226;SDS011;56334;52.398;7.552;2023-05-10T01:12:40;0.98;;;0.32;;
69226;SDS011;56334;52.398;7.552;2023-05-10T01:15:07;0.80;;;0.20;;
69226;SDS011;56334;52.398;7.552;2023-05-10T01:17:34;0.00;;;0.00;;
69226;SDS011;56334;52.398;7.552;2023-05-10T01:20:01;0.57;;;0.28;;
69226;SDS011;56334;52.398;7.552;2023-05-10T01:35:37;0.00;;;0.00;;
69226;SDS011;56334;52.398;7.552;2023-05-10T01:38:16;0.08;;;0.08;;
69226;SDS011;56334;52.398;7.552;2023-05-10T01:43:19;0.00;;;0.00;;
69226;SDS011;56334;52.398;7.552;2023-05-10T01:45:50;1.27;;;0.50;;
69226;SDS011;56334;52.398;7.552;2023-05-10T01:48:20;0.75;;;0.35;;
69226;SDS011;56334;52.398;7.552;2023-05-10T01:50:48;0.30;;;0.10;;
69226;SDS011;56334;52.398;7.552;2023-05-10T01:53:17;0.35;;;0.10;;
69226;SDS011;56334;52.398;7.552;2023-05-10T01:55:48;0.30;;;0.10;;
69226;SDS011;56334;52.398;7.552;2023-05-10T01:58:17;0.32;;;0.15;;
69226;SDS011;56334;52.398;7.552;2023-05-10T02:00:44;0.57;;;0.20;;
69226;SDS011;56334;52.398;7.552;2023-05-10T02:03:11;0.80;;;0.50;;
69226;SDS011;56334;52.398;7.552;2023-05-10T02:05:38;0.82;;;0.32;;
69226;SDS011;56334;52.398;7.552;2023-05-10T02:08:06;0.47;;;0.15;;
69226;SDS011;56334;52.398;7.552;2023-05-10T02:10:33;0.38;;;0.10;;
69226;SDS011;56334;52.398;7.552;2023-05-10T02:13:00;0.50;;;0.17;;
69226;SDS011;56334;52.398;7.552;2023-05-10T02:15:27;0.28;;;0.10;;
69226;SDS011;56334;52.398;7.552;2023-05-10T02:17:54;1.17;;;0.30;;
69226;SDS011;56334;52.398;7.552;2023-05-10T02:20:21;0.30;;;0.13;;
69226;SDS011;56334;52.398;7.552;2023-05-10T02:22:48;1.10;;;0.50;;
69226;SDS011;56334;52.398;7.552;2023-05-10T02:25:15;0.52;;;0.20;;
69226;SDS011;56334;52.398;7.552;2023-05-10T02:27:41;0.52;;;0.22;;
69226;SDS011;56334;52.398;7.552;2023-05-10T02:30:09;0.45;;;0.20;;
69226;SDS011;56334;52.398;7.552;2023-05-10T02:32:35;0.40;;;0.20;;
69226;SDS011;56334;52.398;7.552;2023-05-10T02:35:02;0.75;;;0.25;;
69226;SDS011;56334;52.398;7.552;2023-05-10T02:39:55;0.85;;;0.30;;
69226;SDS011;56334;52.398;7.552;2023-05-10T02:42:23;0.00;;;0.00;;
69226;SDS011;56334;52.398;7.552;2023-05-10T02:44:51;0.30;;;0.13;;
69226;SDS011;56334;52.398;7.552;2023-05-10T02:47:18;1.08;;;0.38;;
69226;SDS011;56334;52.398;7.552;2023-05-10T02:49:44;1.23;;;0.43;;
69226;SDS011;56334;52.398;7.552;2023-05-10T02:52:11;0.77;;;0.17;;
69226;SDS011;56334;52.398;7.552;2023-05-10T02:54:41;0.13;;;0.08;;
69226;SDS011;56334;52.398;7.552;2023-05-10T02:57:09;0.00;;;0.00;;
69226;SDS011;56334;52.398;7.552;2023-05-10T02:59:36;0.00;;;0.00;;
69226;SDS011;56334;52.398;7.552;2023-05-10T03:02:03;0.00;;;0.00;;
69226;SDS011;56334;52.398;7.552;2023-05-10T03:04:29;0.32;;;0.20;;
69226;SDS011;56334;52.398;7.552;2023-05-10T03:06:55;0.00;;;0.00;;
69226;SDS011;56334;52.398;7.552;2023-05-10T03:09:21;0.70;;;0.15;;
69226;SDS011;56334;52.398;7.552;2023-05-10T03:17:04;0.00;;;0.00;;
69226;SDS011;56334;52.398;7.552;2023-05-10T03:19:32;0.88;;;0.22;;
69226;SDS011;56334;52.398;7.552;2023-05-10T03:22:03;0.98;;;0.25;;
69226;SDS011;56334;52.398;7.552;2023-05-10T03:24:31;0.52;;;0.25;;
69226;SDS011;56334;52.398;7.552;2023-05-10T03:27:00;3.20;;;0.25;;
69226;SDS011;56334;52.398;7.552;2023-05-10T03:29:27;0.68;;;0.28;;
69226;SDS011;56334;52.398;7.552;2023-05-10T03:31:57;1.13;;;0.45;;
69226;SDS011;56334;52.398;7.552;2023-05-10T03:34:23;0.35;;;0.10;;
69226;SDS011;56334;52.398;7.552;2023-05-10T03:36:49;0.10;;;0.00;;
69226;SDS011;56334;52.398;7.552;2023-05-10T03:39:15;1.60;;;0.85;;
69226;SDS011;56334;52.398;7.552;2023-05-10T03:41:41;1.83;;;0.57;;
69226;SDS011;56334;52.398;7.552;2023-05-10T03:44:07;0.77;;;0.35;;
69226;SDS011;56334;52.398;7.552;2023-05-10T03:46:33;2.15;;;0.77;;
69226;SDS011;56334;52.398;7.552;2023-05-10T03:48:59;0.65;;;0.28;;
69226;SDS011;56334;52.398;7.552;2023-05-10T03:51:25;1.02;;;0.30;;
69226;SDS011;56334;52.398;7.552;2023-05-10T03:53:53;2.03;;;0.70;;
69226;SDS011;56334;52.398;7.552;2023-05-10T03:56:19;0.00;;;0.00;;
69226;SDS011;56334;52.398;7.552;2023-05-10T03:58:46;1.38;;;0.40;;
69226;SDS011;56334;52.398;7.552;2023-05-10T04:01:12;1.52;;;0.28;;
69226;SDS011;56334;52.398;7.552;2023-05-10T04:03:38;1.25;;;0.40;;
69226;SDS011;56334;52.398;7.552;2023-05-10T04:06:05;0.43;;;0.17;;
69226;SDS011;56334;52.398;7.552;2023-05-10T04:08:34;1.02;;;0.32;;
69226;SDS011;56334;52.398;7.552;2023-05-10T04:11:06;2.88;;;1.27;;
69226;SDS011;56334;52.398;7.552;2023-05-10T04:13:32;0.52;;;0.17;;
69226;SDS011;56334;52.398;7.552;2023-05-10T04:15:59;0.95;;;0.47;;
69226;SDS011;56334;52.398;7.552;2023-05-10T04:18:25;1.35;;;0.60;;
69226;SDS011;56334;52.398;7.552;2023-05-10T04:20:51;1.65;;;0.32;;
69226;SDS011;56334;52.398;7.552;2023-05-10T04:23:17;1.65;;;0.32;;
69226;SDS011;56334;52.398;7.552;2023-05-10T04:25:43;2.17;;;0.70;;
69226;SDS011;56334;52.398;7.552;2023-05-10T04:28:09;0.68;;;0.40;;
69226;SDS011;56334;52.398;7.552;2023-05-10T04:30:35;0.30;;;0.10;;
69226;SDS011;56334;52.398;7.552;2023-05-10T04:33:01;0.75;;;0.43;;
69226;SDS011;56334;52.398;7.552;2023-05-10T04:35:27;0.52;;;0.43;;
69226;SDS011;56334;52.398;7.552;2023-05-10T04:37:54;2.13;;;0.85;;
69226;SDS011;56334;52.398;7.552;2023-05-10T04:40:20;0.73;;;0.43;;
69226;SDS011;56334;52.398;7.552;2023-05-10T04:45:13;0.90;;;0.65;;
69226;SDS011;56334;52.398;7.552;2023-05-10T04:47:41;1.48;;;0.82;;
69226;SDS011;56334;52.398;7.552;2023-05-10T04:50:08;1.48;;;0.70;;
69226;SDS011;56334;52.398;7.552;2023-05-10T04:52:34;0.00;;;0.00;;
69226;SDS011;56334;52.398;7.552;2023-05-10T04:55:00;1.23;;;0.77;;
69226;SDS011;56334;52.398;7.552;2023-05-10T04:57:26;0.93;;;0.30;;
69226;SDS011;56334;52.398;7.552;2023-05-10T04:59:52;0.85;;;0.45;;
69226;SDS011;56334;52.398;7.552;2023-05-10T05:02:18;0.25;;;0.20;;
69226;SDS011;56334;52.398;7.552;2023-05-10T05:04:44;0.80;;;0.38;;
69226;SDS011;56334;52.398;7.552;2023-05-10T05:07:10;0.10;;;0.08;;
69226;SDS011;56334;52.398;7.552;2023-05-10T05:09:36;2.83;;;0.55;;
69226;SDS011;56334;52.398;7.552;2023-05-10T05:12:02;1.85;;;0.75;;
69226;SDS011;56334;52.398;7.552;2023-05-10T05:14:28;2.55;;;1.52;;
69226;SDS011;56334;52.398;7.552;2023-05-10T05:16:54;0.93;;;0.40;;
69226;SDS011;56334;52.398;7.552;2023-05-10T05:19:22;1.52;;;0.75;;
69226;SDS011;56334;52.398;7.552;2023-05-10T05:21:48;0.82;;;0.52;;
69226;SDS011;56334;52.398;7.552;2023-05-10T05:24:14;0.00;;;0.00;;
69226;SDS011;56334;52.398;7.552;2023-05-10T05:26:40;0.55;;;0.20;;
69226;SDS011;56334;52.398;7.552;2023-05-10T05:29:06;1.85;;;0.40;;
69226;SDS011;56334;52.398;7.552;2023-05-10T05:31:32;0.73;;;0.30;;
69226;SDS011;56334;52.398;7.552;2023-05-10T05:33:58;0.22;;;0.00;;
69226;SDS011;56334;52.398;7.552;2023-05-10T05:36:24;1.55;;;0.63;;
69226;SDS011;56334;52.398;7.552;2023-05-10T05:38:50;2.50;;;1.13;;
69226;SDS011;56334;52.398;7.552;2023-05-10T05:41:16;2.15;;;0.93;;
69226;SDS011;56334;52.398;7.552;2023-05-10T05:43:42;0.85;;;0.35;;
69226;SDS011;56334;52.398;7.552;2023-05-10T05:46:08;1.23;;;0.47;;
69226;SDS011;56334;52.398;7.552;2023-05-10T05:48:34;1.85;;;0.85;;
69226;SDS011;56334;52.398;7.552;2023-05-10T05:51:00;1.10;;;0.57;;
69226;SDS011;56334;52.398;7.552;2023-05-10T05:53:26;0.43;;;0.13;;
69226;SDS011;56334;52.398;7.552;2023-05-10T05:55:53;2.00;;;0.73;;
69226;SDS011;56334;52.398;7.552;2023-05-10T05:58:20;1.00;;;0.30;;
69226;SDS011;56334;52.398;7.552;2023-05-10T06:00:47;3.15;;;1.00;;
69226;SDS011;56334;52.398;7.552;2023-05-10T06:03:14;4.35;;;1.23;;
69226;SDS011;56334;52.398;7.552;2023-05-10T06:05:40;2.05;;;1.05;;
69226;SDS011;56334;52.398;7.552;2023-05-10T06:08:06;4.13;;;1.60;;
69226;SDS011;56334;52.398;7.552;2023-05-10T06:10:32;0.80;;;0.38;;
69226;SDS011;56334;52.398;7.552;2023-05-10T06:12:58;1.55;;;0.80;;
69226;SDS011;56334;52.398;7.552;2023-05-10T06:15:25;0.77;;;0.43;;
69226;SDS011;56334;52.398;7.552;2023-05-10T06:17:51;1.52;;;0.45;;
69226;SDS011;56334;52.398;7.552;2023-05-10T06:20:17;1.55;;;0.80;;
69226;SDS011;56334;52.398;7.552;2023-05-10T06:22:43;2.22;;;1.20;;
69226;SDS011;56334;52.398;7.552;2023-05-10T06:25:11;2.13;;;0.98;;
69226;SDS011;56334;52.398;7.552;2023-05-10T06:27:37;2.25;;;0.90;;
69226;SDS011;56334;52.398;7.552;2023-05-10T06:30:03;0.90;;;0.32;;
69226;SDS011;56334;52.398;7.552;2023-05-10T06:34:56;0.00;;;0.00;;
69226;SDS011;56334;52.398;7.552;2023-05-10T06:37:22;2.00;;;0.93;;
69226;SDS011;56334;52.398;7.552;2023-05-10T06:39:48;3.55;;;0.68;;
69226;SDS011;56334;52.398;7.552;2023-05-10T06:42:14;1.95;;;0.95;;
69226;SDS011;56334;52.398;7.552;2023-05-10T06:44:41;1.45;;;0.52;;
69226;SDS011;56334;52.398;7.552;2023-05-10T06:47:08;3.10;;;0.57;;
69226;SDS011;56334;52.398;7.552;2023-05-10T06:49:34;1.65;;;0.40;;
69226;SDS011;56334;52.398;7.552;2023-05-10T06:52:00;1.70;;;0.70;;
69226;SDS011;56334;52.398;7.552;2023-05-10T06:54:26;2.78;;;0.57;;
69226;SDS011;56334;52.398;7.552;2023-05-10T06:56:52;2.08;;;0.90;;
69226;SDS011;56334;52.398;7.552;2023-05-10T06:59:18;1.75;;;0.45;;
69226;SDS011;56334;52.398;7.552;2023-05-10T07:01:46;1.52;;;0.35;;
69226;SDS011;56334;52.398;7.552;2023-05-10T07:04:12;1.55;;;0.80;;
69226;SDS011;56334;52.398;7.552;2023-05-10T07:06:38;1.05;;;0.38;;
69226;SDS011;56334;52.398;7.552;2023-05-10T07:09:04;2.90;;;0.82;;
69226;SDS011;56334;52.398;7.552;2023-05-10T07:11:30;1.50;;;0.43;;
69226;SDS011;56334;52.398;7.552;2023-05-10T07:13:56;2.33;;;1.02;;
69226;SDS011;56334;52.398;7.552;2023-05-10T07:16:23;3.50;;;0.63;;
69226;SDS011;56334;52.398;7.552;2023-05-10T07:18:49;4.78;;;2.70;;
69226;SDS011;56334;52.398;7.552;2023-05-10T07:21:15;2.78;;;1.20;;
69226;SDS011;56334;52.398;7.552;2023-05-10T07:23:42;2.58;;;0.68;;
69226;SDS011;56334;52.398;7.552;2023-05-10T07:26:10;3.97;;;0.98;;
69226;SDS011;56334;52.398;7.552;2023-05-10T07:28:36;2.00;;;0.77;;
69226;SDS011;56334;52.398;7.552;2023-05-10T07:31:03;2.67;;;0.68;;
69226;SDS011;56334;52.398;7.552;2023-05-10T07:33:30;3.90;;;1.88;;
69226;SDS011;56334;52.398;7.552;2023-05-10T07:35:57;4.60;;;1.63;;
69226;SDS011;56334;52.398;7.552;2023-05-10T07:40:54;3.95;;;0.90;;
69226;SDS011;56334;52.398;7.552;2023-05-10T07:43:20;5.97;;;0.93;;
69226;SDS011;56334;52.398;7.552;2023-05-10T07:45:46;0.80;;;0.55;;
69226;SDS011;56334;52.398;7.552;2023-05-10T07:48:12;5.63;;;2.33;;
69226;SDS011;56334;52.398;7.552;2023-05-10T07:50:38;3.67;;;1.90;;
69226;SDS011;56334;52.398;7.552;2023-05-10T07:53:05;3.03;;;1.38;;
69226;SDS011;56334;52.398;7.552;2023-05-10T07:55:32;5.10;;;1.85;;
69226;SDS011;56334;52.398;7.552;2023-05-10T07:57:58;1.00;;;0.52;;
69226;SDS011;56334;52.398;7.552;2023-05-10T08:00:26;3.05;;;1.40;;
69226;SDS011;56334;52.398;7.552;2023-05-10T08:02:52;2.63;;;1.45;;
69226;SDS011;56334;52.398;7.552;2023-05-10T08:05:18;2.88;;;1.15;;
69226;SDS011;56334;52.398;7.552;2023-05-10T08:07:44;4.10;;;2.10;;
69226;SDS011;56334;52.398;7.552;2023-05-10T08:10:10;5.32;;;1.42;;
69226;SDS011;56334;52.398;7.552;2023-05-10T08:12:36;4.68;;;1.38;;
69226;SDS011;56334;52.398;7.552;2023-05-10T08:15:03;3.53;;;0.70;;
69226;SDS011;56334;52.398;7.552;2023-05-10T08:17:29;7.60;;;1.70;;
69226;SDS011;56334;52.398;7.552;2023-05-10T08:19:55;2.08;;;0.55;;
69226;SDS011;56334;52.398;7.552;2023-05-10T08:22:21;2.72;;;1.27;;
69226;SDS011;56334;52.398;7.552;2023-05-10T08:24:47;2.47;;;0.77;;
69226;SDS011;56334;52.398;7.552;2023-05-10T08:27:13;4.25;;;2.17;;
69226;SDS011;56334;52.398;7.552;2023-05-10T08:29:39;4.40;;;1.77;;
69226;SDS011;56334;52.398;7.552;2023-05-10T08:32:05;4.13;;;1.75;;
69226;SDS011;56334;52.398;7.552;2023-05-10T08:34:33;2.13;;;1.13;;
69226;SDS011;56334;52.398;7.552;2023-05-10T08:36:59;3.90;;;0.98;;
69226;SDS011;56334;52.398;7.552;2023-05-10T08:39:25;11.82;;;2.03;;
69226;SDS011;56334;52.398;7.552;2023-05-10T08:41:51;2.30;;;1.02;;
69226;SDS011;56334;52.398;7.552;2023-05-10T08:44:18;3.03;;;1.40;;
69226;SDS011;56334;52.398;7.552;2023-05-10T08:46:46;4.55;;;1.90;;
69226;SDS011;56334;52.398;7.552;2023-05-10T08:49:16;4.50;;;2.08;;
69226;SDS011;56334;52.398;7.552;2023-05-10T08:51:44;3.58;;;1.70;;
69226;SDS011;56334;52.398;7.552;2023-05-10T08:54:13;7.68;;;1.52;;
69226;SDS011;56334;52.398;7.552;2023-05-10T08:56:39;3.47;;;1.83;;
69226;SDS011;56334;52.398;7.552;2023-05-10T08:59:05;4.03;;;1.33;;
69226;SDS011;56334;52.398;7.552;2023-05-10T09:01:31;1.95;;;0.50;;
69226;SDS011;56334;52.398;7.552;2023-05-10T09:03:58;3.13;;;0.95;;
69226;SDS011;56334;52.398;7.552;2023-05-10T09:06:25;4.13;;;1.63;;
69226;SDS011;56334;52.398;7.552;2023-05-10T09:08:52;3.60;;;1.40;;
69226;SDS011;56334;52.398;7.552;2023-05-10T09:11:18;3.10;;;1.52;;
69226;SDS011;56334;52.398;7.552;2023-05-10T09:13:45;3.97;;;1.45;;
69226;SDS011;56334;52.398;7.552;2023-05-10T09:16:12;3.90;;;1.73;;
69226;SDS011;56334;52.398;7.552;2023-05-10T09:18:38;3.38;;;1.52;;
69226;SDS011;56334;52.398;7.552;2023-05-10T09:21:04;3.53;;;1.42;;
69226;SDS011;56334;52.398;7.552;2023-05-10T09:23:30;1.85;;;1.00;;
69226;SDS011;56334;52.398;7.552;2023-05-10T09:26:04;3.08;;;1.10;;
69226;SDS011;56334;52.398;7.552;2023-05-10T09:28:33;4.70;;;2.08;;
69226;SDS011;56334;52.398;7.552;2023-05-10T09:31:00;2.88;;;1.23;;
69226;SDS011;56334;52.398;7.552;2023-05-10T09:33:26;1.75;;;1.02;;
69226;SDS011;56334;52.398;7.552;2023-05-10T09:35:52;7.75;;;1.90;;
69226;SDS011;56334;52.398;7.552;2023-05-10T09:38:18;2.05;;;0.75;;
69226;SDS011;56334;52.398;7.552;2023-05-10T09:40:50;2.92;;;1.30;;
69226;SDS011;56334;52.398;7.552;2023-05-10T09:43:20;2.33;;;1.02;;
69226;SDS011;56334;52.398;7.552;2023-05-10T09:45:48;4.22;;;1.30;;
69226;SDS011;56334;52.398;7.552;2023-05-10T09:48:15;5.18;;;1.83;;
69226;SDS011;56334;52.398;7.552;2023-05-10T09:50:41;3.80;;;1.98;;
69226;SDS011;56334;52.398;7.552;2023-05-10T09:53:07;3.28;;;1.35;;
69226;SDS011;56334;52.398;7.552;2023-05-10T09:55:40;3.20;;;1.55;;
69226;SDS011;56334;52.398;7.552;2023-05-10T09:58:07;3.15;;;1.35;;
69226;SDS011;56334;52.398;7.552;2023-05-10T10:00:39;3.40;;;1.38;;
69226;SDS011;56334;52.398;7.552;2023-05-10T10:03:05;1.95;;;0.80;;
69226;SDS011;56334;52.398;7.552;2023-05-10T10:05:32;4.07;;;0.95;;
69226;SDS011;56334;52.398;7.552;2023-05-10T10:07:59;6.97;;;2.53;;
69226;SDS011;56334;52.398;7.552;2023-05-10T10:10:25;3.55;;;1.90;;
69226;SDS011;56334;52.398;7.552;2023-05-10T10:12:52;3.72;;;1.23;;
69226;SDS011;56334;52.398;7.552;2023-05-10T10:15:18;1.60;;;0.65;;
69226;SDS011;56334;52.398;7.552;2023-05-10T10:17:45;4.68;;;1.73;;
69226;SDS011;56334;52.398;7.552;2023-05-10T10:20:12;4.97;;;1.85;;
69226;SDS011;56334;52.398;7.552;2023-05-10T10:22:38;3.35;;;1.42;;
69226;SDS011;56334;52.398;7.552;2023-05-10T10:25:04;3.92;;;1.40;;
69226;SDS011;56334;52.398;7.552;2023-05-10T10:33:29;4.00;;;1.80;;
69226;SDS011;56334;52.398;7.552;2023-05-10T10:35:22;3.15;;;1.30;;
69226;SDS011;56334;52.398;7.552;2023-05-10T10:37:49;3.72;;;1.33;;
69226;SDS011;56334;52.398;7.552;2023-05-10T10:40:22;2.90;;;0.90;;
69226;SDS011;56334;52.398;7.552;2023-05-10T10:42:48;10.00;;;1.75;;
69226;SDS011;56334;52.398;7.552;2023-05-10T10:45:18;3.03;;;1.17;;
69226;SDS011;56334;52.398;7.552;2023-05-10T10:47:45;4.28;;;1.83;;
69226;SDS011;56334;52.398;7.552;2023-05-10T10:50:11;3.13;;;1.52;;
69226;SDS011;56334;52.398;7.552;2023-05-10T10:52:43;4.40;;;0.80;;
69226;SDS011;56334;52.398;7.552;2023-05-10T10:55:19;3.92;;;1.40;;
69226;SDS011;56334;52.398;7.552;2023-05-10T10:57:54;2.30;;;1.05;;
69226;SDS011;56334;52.398;7.552;2023-05-10T11:00:35;3.20;;;1.10;;
69226;SDS011;56334;52.398;7.552;2023-05-10T11:03:13;11.18;;;1.55;;
69226;SDS011;56334;52.398;7.552;2023-05-10T11:08:28;1.15;;;0.35;;
69226;SDS011;56334;52.398;7.552;2023-05-10T11:13:28;2.30;;;0.95;;
69226;SDS011;56334;52.398;7.552;2023-05-10T11:15:54;2.17;;;0.75;;
69226;SDS011;56334;52.398;7.552;2023-05-10T11:20:51;1.75;;;0.70;;
69226;SDS011;56334;52.398;7.552;2023-05-10T11:23:18;1.58;;;0.65;;
69226;SDS011;56334;52.398;7.552;2023-05-10T11:25:46;2.75;;;0.93;;
69226;SDS011;56334;52.398;7.552;2023-05-10T11:28:12;5.90;;;1.33;;
69226;SDS011;56334;52.398;7.552;2023-05-10T11:30:39;1.13;;;0.47;;
69226;SDS011;56334;52.398;7.552;2023-05-10T11:33:06;6.68;;;1.95;;
69226;SDS011;56334;52.398;7.552;2023-05-10T11:37:58;3.78;;;1.42;;
69226;SDS011;56334;52.398;7.552;2023-05-10T11:40:24;1.88;;;0.60;;
69226;SDS011;56334;52.398;7.552;2023-05-10T11:42:51;3.42;;;0.70;;
69226;SDS011;56334;52.398;7.552;2023-05-10T11:45:17;3.33;;;1.33;;
69226;SDS011;56334;52.398;7.552;2023-05-10T11:47:43;3.83;;;0.98;;
69226;SDS011;56334;52.398;7.552;2023-05-10T11:50:10;2.75;;;1.02;;
69226;SDS011;56334;52.398;7.552;2023-05-10T11:52:36;6.28;;;0.65;;
69226;SDS011;56334;52.398;7.552;2023-05-10T11:55:03;2.38;;;0.70;;
69226;SDS011;56334;52.398;7.552;2023-05-10T11:57:29;0.93;;;0.30;;
69226;SDS011;56334;52.398;7.552;2023-05-10T11:59:56;2.15;;;1.13;;
69226;SDS011;56334;52.398;7.552;2023-05-10T12:02:22;1.15;;;0.50;;
69226;SDS011;56334;52.398;7.552;2023-05-10T12:04:49;0.98;;;0.25;;
69226;SDS011;56334;52.398;7.552;2023-05-10T12:07:15;1.65;;;0.63;;
69226;SDS011;56334;52.398;7.552;2023-05-10T12:09:42;2.75;;;1.00;;
69226;SDS011;56334;52.398;7.552;2023-05-10T12:12:09;1.70;;;0.45;;
69226;SDS011;56334;52.398;7.552;2023-05-10T12:14:36;2.45;;;0.65;;
69226;SDS011;56334;52.398;7.552;2023-05-10T12:17:02;1.23;;;0.40;;
69226;SDS011;56334;52.398;7.552;2023-05-10T12:19:29;1.65;;;0.40;;
69226;SDS011;56334;52.398;7.552;2023-05-10T12:22:04;0.90;;;0.30;;
69226;SDS011;56334;52.398;7.552;2023-05-10T12:24:30;1.27;;;0.32;;
69226;SDS011;56334;52.398;7.552;2023-05-10T12:26:56;0.75;;;0.43;;
69226;SDS011;56334;52.398;7.552;2023-05-10T12:29:22;4.05;;;1.27;;
69226;SDS011;56334;52.398;7.552;2023-05-10T12:31:49;1.88;;;0.40;;
69226;SDS011;56334;52.398;7.552;2023-05-10T12:34:24;1.77;;;0.52;;
69226;SDS011;56334;52.398;7.552;2023-05-10T12:36:54;1.00;;;0.45;;
69226;SDS011;56334;52.398;7.552;2023-05-10T12:44:47;1.15;;;0.50;;
69226;SDS011;56334;52.398;7.552;2023-05-10T12:47:13;2.17;;;0.80;;
69226;SDS011;56334;52.398;7.552;2023-05-10T12:49:39;0.60;;;0.38;;
69226;SDS011;56334;52.398;7.552;2023-05-10T12:52:05;1.85;;;0.55;;
69226;SDS011;56334;52.398;7.552;2023-05-10T12:54:31;1.05;;;0.45;;
69226;SDS011;56334;52.398;7.552;2023-05-10T12:56:57;1.90;;;0.77;;
69226;SDS011;56334;52.398;7.552;2023-05-10T12:59:23;2.15;;;0.77;;
69226;SDS011;56334;52.398;7.552;2023-05-10T13:01:50;0.03;;;0.00;;
69226;SDS011;56334;52.398;7.552;2023-05-10T13:04:16;0.70;;;0.40;;
69226;SDS011;56334;52.398;7.552;2023-05-10T13:06:42;1.40;;;0.50;;
69226;SDS011;56334;52.398;7.552;2023-05-10T13:09:08;0.73;;;0.32;;
69226;SDS011;56334;52.398;7.552;2023-05-10T13:11:36;0.10;;;0.10;;
69226;SDS011;56334;52.398;7.552;2023-05-10T13:14:05;0.88;;;0.43;;
69226;SDS011;56334;52.398;7.552;2023-05-10T13:16:31;1.88;;;0.65;;
69226;SDS011;56334;52.398;7.552;2023-05-10T13:18:58;2.00;;;0.65;;
69226;SDS011;56334;52.398;7.552;2023-05-10T13:21:24;0.57;;;0.25;;
69226;SDS011;56334;52.398;7.552;2023-05-10T13:26:17;1.80;;;0.75;;
69226;SDS011;56334;52.398;7.552;2023-05-10T13:28:46;0.50;;;0.15;;
69226;SDS011;56334;52.398;7.552;2023-05-10T13:31:13;0.88;;;0.47;;
69226;SDS011;56334;52.398;7.552;2023-05-10T13:33:39;2.40;;;0.75;;
69226;SDS011;56334;52.398;7.552;2023-05-10T13:36:06;0.98;;;0.35;;
69226;SDS011;56334;52.398;7.552;2023-05-10T13:38:33;5.97;;;1.13;;
69226;SDS011;56334;52.398;7.552;2023-05-10T13:41:00;2.90;;;0.95;;
69226;SDS011;56334;52.398;7.552;2023-05-10T13:43:26;0.43;;;0.17;;
69226;SDS011;56334;52.398;7.552;2023-05-10T13:45:52;2.25;;;0.47;;
69226;SDS011;56334;52.398;7.552;2023-05-10T13:48:18;0.70;;;0.22;;
69226;SDS011;56334;52.398;7.552;2023-05-10T13:50:44;1.02;;;0.35;;
69226;SDS011;56334;52.398;7.552;2023-05-10T13:53:11;0.10;;;0.08;;
69226;SDS011;56334;52.398;7.552;2023-05-10T13:55:37;1.73;;;0.15;;
69226;SDS011;56334;52.398;7.552;2023-05-10T13:58:03;0.55;;;0.22;;
69226;SDS011;56334;52.398;7.552;2023-05-10T14:00:29;0.25;;;0.20;;
69226;SDS011;56334;52.398;7.552;2023-05-10T14:02:56;0.93;;;0.43;;
69226;SDS011;56334;52.398;7.552;2023-05-10T14:05:22;1.45;;;0.50;;
69226;SDS011;56334;52.398;7.552;2023-05-10T14:07:48;0.65;;;0.25;;
69226;SDS011;56334;52.398;7.552;2023-05-10T14:10:14;1.85;;;0.65;;
69226;SDS011;56334;52.398;7.552;2023-05-10T14:12:40;1.25;;;0.40;;
69226;SDS011;56334;52.398;7.552;2023-05-10T14:15:06;0.73;;;0.10;;
69226;SDS011;56334;52.398;7.552;2023-05-10T14:17:33;1.00;;;0.50;;
69226;SDS011;56334;52.398;7.552;2023-05-10T14:19:59;0.95;;;0.30;;
69226;SDS011;56334;52.398;7.552;2023-05-10T14:22:26;0.98;;;0.52;;
69226;SDS011;56334;52.398;7.552;2023-05-10T14:24:53;1.40;;;0.38;;
69226;SDS011;56334;52.398;7.552;2023-05-10T14:27:19;1.40;;;0.30;;
69226;SDS011;56334;52.398;7.552;2023-05-10T14:29:45;0.45;;;0.20;;
69226;SDS011;56334;52.398;7.552;2023-05-10T14:32:11;0.98;;;0.30;;
69226;SDS011;56334;52.398;7.552;2023-05-10T14:34:39;1.60;;;0.65;;
69226;SDS011;56334;52.398;7.552;2023-05-10T14:37:05;0.88;;;0.28;;
69226;SDS011;56334;52.398;7.552;2023-05-10T14:39:31;1.08;;;0.30;;
69226;SDS011;56334;52.398;7.552;2023-05-10T14:44:24;0.43;;;0.13;;
69226;SDS011;56334;52.398;7.552;2023-05-10T14:46:52;0.47;;;0.17;;
69226;SDS011;56334;52.398;7.552;2023-05-10T14:49:19;1.27;;;0.43;;
69226;SDS011;56334;52.398;7.552;2023-05-10T14:51:47;0.05;;;0.00;;
69226;SDS011;56334;52.398;7.552;2023-05-10T14:54:13;1.25;;;0.43;;
69226;SDS011;56334;52.398;7.552;2023-05-10T14:56:40;0.20;;;0.10;;
69226;SDS011;56334;52.398;7.552;2023-05-10T14:59:06;0.98;;;0.43;;
69226;SDS011;56334;52.398;7.552;2023-05-10T15:01:34;0.80;;;0.10;;
69226;SDS011;56334;52.398;7.552;2023-05-10T15:04:03;1.08;;;0.43;;
69226;SDS011;56334;52.398;7.552;2023-05-10T15:06:35;0.55;;;0.22;;
69226;SDS011;56334;52.398;7.552;2023-05-10T15:09:02;1.13;;;0.17;;
69226;SDS011;56334;52.398;7.552;2023-05-10T15:11:29;0.40;;;0.13;;
69226;SDS011;56334;52.398;7.552;2023-05-10T15:13:55;0.60;;;0.17;;
69226;SDS011;56334;52.398;7.552;2023-05-10T15:16:21;0.65;;;0.30;;
69226;SDS011;56334;52.398;7.552;2023-05-10T15:18:47;0.95;;;0.40;;
69226;SDS011;56334;52.398;7.552;2023-05-10T15:21:13;1.40;;;0.60;;
69226;SDS011;56334;52.398;7.552;2023-05-10T15:23:40;0.45;;;0.30;;
69226;SDS011;56334;52.398;7.552;2023-05-10T15:26:06;0.55;;;0.20;;
69226;SDS011;56334;52.398;7.552;2023-05-10T15:28:32;1.42;;;0.30;;
69226;SDS011;56334;52.398;7.552;2023-05-10T15:30:59;0.00;;;0.00;;
69226;SDS011;56334;52.398;7.552;2023-05-10T15:33:25;0.38;;;0.20;;
69226;SDS011;56334;52.398;7.552;2023-05-10T15:35:52;0.10;;;0.10;;
69226;SDS011;56334;52.398;7.552;2023-05-10T15:38:21;0.55;;;0.20;;
69226;SDS011;56334;52.398;7.552;2023-05-10T15:40:47;0.10;;;0.10;;
69226;SDS011;56334;52.398;7.552;2023-05-10T15:43:13;1.30;;;0.50;;